Pagina principale
METAR-TAF:

METAR-TAF

Aeroporti :

Tabarka, Tunisia

latitudine: 36-57N, longitudine: 008-45E, altezza: 20 m

Osservazione

Il bollettino è stato emesso 37 minuti fa, alle 09:00 UTC
Vento 4 kt da sud
Temperature 28°C
Umidità 23%
Pressione 1014 hPa
Visibilità 10 km o più
nessuna nube inferiore a 1500 m e nessun cumulonembo

METAR: DTKA 290900Z 18004KT CAVOK 28/05 Q1014 NOSIG

Ora: 10:37 (09:37 UTC)

Previsione

Il bollettino è stato emesso 37 minuti fa, alle 09:00 UTC
Previsione valida dal 29 alle 10 UTC al 29 alle 19 UTC
Vento 4 kt da sud
Visibilità 10 km o più
nessuna nube inferiore a 1500 m e nessun cumulonembo
Probabilità 30% :
Temporaneamente
dal 29 alle 14 UTC al 29 alle 19 UTC
Vento 15 kt da sud-est con raffiche fino a 25 kt

TAF: DTKA 290900Z 2910/2919 18004KT CAVOK PROB30 TEMPO 2914/2919 13015G25KT

Osservazioni e previsioni meteorologiche di più di 4000 aeroporti (messaggi METAR e TAF).

Le stazioni disponibili sono rappresentate dai dischi gialli e rossi sulla carta.

Puntare il mouse per vedere il nome della stazione.

Clicca sopra per visualizzare le osservazioni e previsioni meteorologiche.

Per cambiare la mappa : fare clic sui pulsanti verdi con una croce nera per ingrandire, il pulsante verde con un trattino per diminuire, o sulla freccia verde per le mappe adiacenti.


METAR-TAF: